createdAt,value
2023-02-14T00:01:28.509Z,2.78
2023-02-14T00:04:31.245Z,2.75
2023-02-14T00:07:35.356Z,2.95
2023-02-14T00:10:38.091Z,3.10
2023-02-14T00:14:00.955Z,2.91
2023-02-14T00:17:02.789Z,2.98
2023-02-14T00:20:06.533Z,2.80
2023-02-14T00:23:10.595Z,2.82
2023-02-14T00:26:16.985Z,2.87
2023-02-14T00:29:22.260Z,2.77
2023-02-14T00:32:25.048Z,2.67
2023-02-14T00:35:27.714Z,2.66
2023-02-14T00:38:31.872Z,2.55
2023-02-14T00:41:35.384Z,2.75
2023-02-14T00:44:38.191Z,2.81
2023-02-14T00:47:40.878Z,2.82
2023-02-14T00:50:45.771Z,2.86
2023-02-14T00:53:50.846Z,2.90
2023-02-14T00:56:53.663Z,2.83
2023-02-14T00:59:56.346Z,2.99
2023-02-14T01:02:59.032Z,3.01
2023-02-14T01:06:02.291Z,2.99
2023-02-14T01:09:06.450Z,2.99
2023-02-14T01:12:09.337Z,3.08
2023-02-14T01:15:12.053Z,3.02
2023-02-14T01:18:15.945Z,3.09
2023-02-14T01:21:20.793Z,3.23
2023-02-14T01:24:26.668Z,3.08
2023-02-14T01:27:29.523Z,3.13
2023-02-14T01:30:32.487Z,2.99
2023-02-14T01:33:35.222Z,2.89
2023-02-14T01:36:40.302Z,3.00
2023-02-14T01:39:44.713Z,2.98
2023-02-14T01:42:47.471Z,2.99
2023-02-14T01:45:50.267Z,2.97
2023-02-14T01:48:55.211Z,2.98
2023-02-14T01:52:04.300Z,3.06
2023-02-14T01:55:14.856Z,3.03
2023-02-14T01:58:22.718Z,3.03
2023-02-14T02:01:26.033Z,3.09
2023-02-14T02:04:42.389Z,3.10
2023-02-14T02:07:45.478Z,3.08
2023-02-14T02:10:49.446Z,3.05
2023-02-14T02:13:52.077Z,3.13
2023-02-14T02:17:12.791Z,3.05
2023-02-14T02:20:33.546Z,3.04
2023-02-14T02:24:03.821Z,3.07
2023-02-14T02:27:27.558Z,3.22
2023-02-14T02:30:46.426Z,3.10
2023-02-14T02:34:19.665Z,3.10
2023-02-14T02:37:39.686Z,3.09
2023-02-14T02:40:49.946Z,3.17
2023-02-14T02:43:56.395Z,3.13
2023-02-14T02:47:06.476Z,3.07
2023-02-14T02:50:39.339Z,3.14
2023-02-14T02:53:48.789Z,3.24
2023-02-14T02:56:56.059Z,3.33
2023-02-14T03:00:00.061Z,3.41
2023-02-14T03:03:21.412Z,3.23
2023-02-14T03:06:24.062Z,3.17
2023-02-14T03:09:53.870Z,3.13
2023-02-14T03:13:28.874Z,3.05
2023-02-14T03:16:34.946Z,3.10
2023-02-14T03:20:04.238Z,3.13
2023-02-14T03:23:12.853Z,3.19
2023-02-14T03:26:20.863Z,3.17
2023-02-14T03:29:32.810Z,3.21
2023-02-14T03:32:39.977Z,3.27
2023-02-14T03:35:53.535Z,3.31
2023-02-14T03:39:00.624Z,3.28
2023-02-14T03:42:10.870Z,3.28
2023-02-14T03:45:19.401Z,3.27
2023-02-14T03:48:24.857Z,3.29
2023-02-14T03:51:34.187Z,3.14
2023-02-14T03:54:37.395Z,3.24
2023-02-14T03:57:48.849Z,3.29
2023-02-14T04:00:54.056Z,3.24
2023-02-14T04:03:59.040Z,3.15
2023-02-14T04:07:09.594Z,3.28
2023-02-14T04:10:12.908Z,3.42
2023-02-14T04:13:16.931Z,3.31
2023-02-14T04:16:44.209Z,3.43
2023-02-14T04:19:48.143Z,3.37
2023-02-14T04:22:52.267Z,3.35
2023-02-14T04:25:55.243Z,3.40
2023-02-14T04:28:59.243Z,3.44
2023-02-14T04:32:01.949Z,3.54
2023-02-14T04:35:04.874Z,3.39
2023-02-14T04:38:07.502Z,3.40
2023-02-14T04:41:10.176Z,3.31
2023-02-14T04:44:16.386Z,3.21
2023-02-14T04:47:19.206Z,3.24
2023-02-14T04:50:23.337Z,3.34
2023-02-14T04:53:26.012Z,3.29
2023-02-14T04:56:28.656Z,3.27
2023-02-14T04:59:33.405Z,3.26
2023-02-14T05:02:36.058Z,3.22
2023-02-14T05:05:38.752Z,3.16
2023-02-14T05:08:41.369Z,3.13
2023-02-14T05:11:44.136Z,3.11
2023-02-14T05:14:48.204Z,3.11
2023-02-14T05:17:50.898Z,3.10
2023-02-14T05:20:54.753Z,3.11
2023-02-14T05:23:57.456Z,3.14
2023-02-14T05:27:00.128Z,3.18
2023-02-14T05:30:05.242Z,3.24
2023-02-14T05:33:08.350Z,3.24
2023-02-14T05:36:11.277Z,3.19
2023-02-14T05:39:14.547Z,3.16
2023-02-14T05:42:17.237Z,3.07
2023-02-14T05:45:21.410Z,3.03
2023-02-14T05:48:24.412Z,3.05
2023-02-14T05:51:27.108Z,3.10
2023-02-14T05:54:29.752Z,3.07
2023-02-14T05:57:32.566Z,3.08
2023-02-14T06:00:38.796Z,3.09
2023-02-14T06:03:43.022Z,3.12
2023-02-14T06:06:45.654Z,3.05
2023-02-14T06:09:48.342Z,3.05
2023-02-14T06:12:52.263Z,3.07
2023-02-14T06:15:56.273Z,3.12
2023-02-14T06:18:59.038Z,3.10
2023-02-14T06:22:01.686Z,3.18
2023-02-14T06:25:05.173Z,3.16
2023-02-14T06:28:07.958Z,3.12
2023-02-14T06:31:18.363Z,3.16
2023-02-14T06:34:21.116Z,3.19
2023-02-14T06:37:23.739Z,3.25
2023-02-14T06:40:26.396Z,3.25
2023-02-14T06:43:29.039Z,3.31
2023-02-14T06:46:33.136Z,3.56
2023-02-14T06:49:36.010Z,3.47
2023-02-14T06:52:39.473Z,3.23
2023-02-14T06:55:43.852Z,3.20
2023-02-14T06:58:46.543Z,3.17
2023-02-14T07:01:50.934Z,3.20
2023-02-14T07:04:53.680Z,3.15
2023-02-14T07:07:56.323Z,3.12
2023-02-14T07:10:59.832Z,3.04
2023-02-14T07:14:02.848Z,3.05
2023-02-14T07:17:06.953Z,3.12
2023-02-14T07:20:11.513Z,2.98
2023-02-14T07:23:14.157Z,3.06
2023-02-14T07:26:18.185Z,3.11
2023-02-14T07:29:21.196Z,3.12
2023-02-14T07:32:25.380Z,3.16
2023-02-14T07:35:28.063Z,3.23
2023-02-14T07:38:30.766Z,3.30
2023-02-14T07:41:33.525Z,3.38
2023-02-14T07:44:36.251Z,3.36
2023-02-14T07:47:40.224Z,3.33
2023-02-14T07:50:42.912Z,3.34
2023-02-14T07:53:45.574Z,3.47
2023-02-14T07:56:48.255Z,3.45
2023-02-14T07:59:50.888Z,3.38
2023-02-14T08:02:56.391Z,3.41
2023-02-14T08:05:59.086Z,3.44
2023-02-14T08:09:02.886Z,3.47
2023-02-14T08:12:23.506Z,3.50
2023-02-14T08:15:44.101Z,3.54
2023-02-14T08:18:48.092Z,3.51
2023-02-14T08:21:50.736Z,3.54
2023-02-14T08:24:53.341Z,3.53
2023-02-14T08:27:56.311Z,3.45
2023-02-14T08:30:59.282Z,3.38
2023-02-14T08:34:03.539Z,3.49
2023-02-14T08:37:06.227Z,3.63
2023-02-14T08:40:09.745Z,3.66
2023-02-14T08:43:14.124Z,3.67
2023-02-14T08:46:17.690Z,3.68
2023-02-14T08:49:21.748Z,3.83
2023-02-14T08:52:24.507Z,3.93
2023-02-14T08:55:28.793Z,3.93
2023-02-14T08:58:32.916Z,4.00
2023-02-14T09:01:37.268Z,4.07
2023-02-14T09:04:41.397Z,4.09
2023-02-14T09:07:44.048Z,3.86
2023-02-14T09:10:46.830Z,4.09
2023-02-14T09:13:50.762Z,4.16
2023-02-14T09:16:53.519Z,4.08
2023-02-14T09:19:57.759Z,4.00
2023-02-14T09:23:00.503Z,3.99
2023-02-14T09:26:03.865Z,4.08
2023-02-14T09:29:06.566Z,4.28
2023-02-14T09:32:09.910Z,4.30
2023-02-14T09:35:13.998Z,4.14
2023-02-14T09:38:19.439Z,4.08
2023-02-14T09:41:47.946Z,3.97
2023-02-14T09:44:55.135Z,4.27
2023-02-14T09:48:02.884Z,4.35
2023-02-14T09:51:13.198Z,4.31
2023-02-14T09:54:22.589Z,4.47
2023-02-14T09:57:35.245Z,4.54
2023-02-14T10:00:46.619Z,4.71
2023-02-14T10:04:04.208Z,4.65
2023-02-14T10:07:19.597Z,4.63
2023-02-14T10:10:28.262Z,4.72
2023-02-14T10:13:37.208Z,4.83
2023-02-14T10:16:44.741Z,4.78
2023-02-14T10:19:52.859Z,4.79
2023-02-14T10:23:04.386Z,4.82
2023-02-14T10:26:11.650Z,4.82
2023-02-14T10:29:17.108Z,4.88
2023-02-14T10:32:27.120Z,4.82
2023-02-14T10:35:42.805Z,4.88
2023-02-14T10:38:59.188Z,4.85
2023-02-14T10:42:13.200Z,4.95
2023-02-14T10:45:24.594Z,4.94
2023-02-14T10:48:48.833Z,5.04
2023-02-14T10:51:58.150Z,5.18
2023-02-14T10:55:20.204Z,5.15
2023-02-14T10:58:36.970Z,5.29
2023-02-14T11:01:40.009Z,5.35
2023-02-14T11:04:43.841Z,5.38
2023-02-14T11:07:46.493Z,5.42
2023-02-14T11:10:50.710Z,5.54
2023-02-14T11:13:53.619Z,5.54
2023-02-14T11:16:58.729Z,5.68
2023-02-14T11:20:06.303Z,5.78
2023-02-14T11:23:21.156Z,5.85
2023-02-14T11:26:27.536Z,5.89
2023-02-14T11:29:32.611Z,5.81
2023-02-14T11:32:37.635Z,5.77
2023-02-14T11:35:40.670Z,5.68
2023-02-14T11:38:46.288Z,5.67
2023-02-14T11:41:52.674Z,5.71
2023-02-14T11:44:58.565Z,5.75
2023-02-14T11:48:31.493Z,5.58
2023-02-14T11:51:46.242Z,5.71
2023-02-14T11:54:50.279Z,5.74
2023-02-14T11:57:55.896Z,5.84
2023-02-14T12:01:03.929Z,5.89
2023-02-14T12:04:14.326Z,5.94
2023-02-14T12:07:23.938Z,6.01
2023-02-14T12:10:28.998Z,6.02
2023-02-14T12:13:33.688Z,6.23
2023-02-14T12:16:41.360Z,6.26
2023-02-14T12:19:50.096Z,6.16
2023-02-14T12:22:59.832Z,6.16
2023-02-14T12:26:10.775Z,6.09
2023-02-14T12:29:21.907Z,6.08
2023-02-14T12:32:27.273Z,5.99
2023-02-14T12:35:44.417Z,5.98
2023-02-14T12:38:54.822Z,6.05
2023-02-14T12:42:06.869Z,6.18
2023-02-14T12:45:20.967Z,6.18
2023-02-14T12:48:35.654Z,6.18
2023-02-14T12:51:45.008Z,6.08
2023-02-14T12:55:01.831Z,6.04
2023-02-14T12:58:19.366Z,6.03
2023-02-14T13:01:55.638Z,6.06
2023-02-14T13:05:03.768Z,6.08
2023-02-14T13:08:19.901Z,6.08
2023-02-14T13:11:35.253Z,6.18
2023-02-14T13:14:49.130Z,6.25
2023-02-14T13:17:56.449Z,6.33
2023-02-14T13:21:04.265Z,6.30
2023-02-14T13:24:19.418Z,6.31
2023-02-14T13:27:24.573Z,6.27
2023-02-14T13:30:32.556Z,6.19
2023-02-14T13:33:39.506Z,6.14
2023-02-14T13:36:45.039Z,6.18
2023-02-14T13:39:52.490Z,6.17
2023-02-14T13:42:58.178Z,6.07
2023-02-14T13:46:00.900Z,6.07
2023-02-14T13:49:22.103Z,6.18
2023-02-14T13:52:44.081Z,6.25
2023-02-14T13:55:48.824Z,6.29
2023-02-14T13:58:53.956Z,6.27
2023-02-14T14:01:57.619Z,6.26
2023-02-14T14:05:01.968Z,6.26
2023-02-14T14:08:35.118Z,6.14
2023-02-14T14:12:01.856Z,6.07
2023-02-14T14:15:21.458Z,5.96
2023-02-14T14:18:42.734Z,5.83
2023-02-14T14:22:01.869Z,5.93
2023-02-14T14:25:12.144Z,5.89
2023-02-14T14:28:20.798Z,5.72
2023-02-14T14:31:23.620Z,5.85
2023-02-14T14:34:28.654Z,5.90
2023-02-14T14:37:33.172Z,5.86
2023-02-14T14:40:39.131Z,5.86
2023-02-14T14:43:42.551Z,5.69
2023-02-14T14:46:46.768Z,5.67
2023-02-14T14:49:49.925Z,5.71
2023-02-14T14:52:55.133Z,5.58
2023-02-14T14:55:59.803Z,5.46
2023-02-14T14:59:17.521Z,5.65
2023-02-14T15:02:27.376Z,5.75
2023-02-14T15:05:34.300Z,5.75
2023-02-14T15:08:37.596Z,5.59
2023-02-14T15:12:12.000Z,5.42
2023-02-14T15:15:17.426Z,5.42
2023-02-14T15:18:21.684Z,5.32
2023-02-14T15:21:24.517Z,5.18
2023-02-14T15:24:27.789Z,5.29
2023-02-14T15:27:32.364Z,5.19
2023-02-14T15:30:38.934Z,5.22
2023-02-14T15:33:41.853Z,5.17
2023-02-14T15:36:46.611Z,4.98
2023-02-14T15:39:53.337Z,4.94
2023-02-14T15:42:59.414Z,4.97
2023-02-14T15:46:16.938Z,5.08
2023-02-14T15:49:23.789Z,4.96
2023-02-14T15:52:26.481Z,5.12
2023-02-14T15:55:29.576Z,5.19
2023-02-14T15:58:36.180Z,5.09
2023-02-14T16:01:39.876Z,4.95
2023-02-14T16:04:42.760Z,4.91
2023-02-14T16:07:57.986Z,4.87
2023-02-14T16:11:04.361Z,5.04
2023-02-14T16:14:36.013Z,4.96
2023-02-14T16:17:40.160Z,4.99
2023-02-14T16:20:46.993Z,5.02
2023-02-14T16:24:14.332Z,4.86
2023-02-14T16:27:17.659Z,5.06
2023-02-14T16:30:21.577Z,5.20
2023-02-14T16:33:27.194Z,4.86
2023-02-14T16:36:32.088Z,4.89
2023-02-14T16:39:36.749Z,4.79
2023-02-14T16:42:42.480Z,4.78
2023-02-14T16:45:45.720Z,4.93
2023-02-14T16:48:52.220Z,4.77
2023-02-14T16:51:55.815Z,4.79
2023-02-14T16:54:59.819Z,4.73
2023-02-14T16:58:04.199Z,4.69
2023-02-14T17:01:06.999Z,4.56
2023-02-14T17:04:10.119Z,4.53
2023-02-14T17:07:14.792Z,4.73
2023-02-14T17:10:21.229Z,4.81
2023-02-14T17:13:27.635Z,4.59
2023-02-14T17:16:31.122Z,4.47
2023-02-14T17:19:34.644Z,4.35
2023-02-14T17:22:38.260Z,4.52
2023-02-14T17:25:42.486Z,4.45
2023-02-14T17:28:46.466Z,4.45
2023-02-14T17:31:49.394Z,4.40
2023-02-14T17:34:55.414Z,4.36
2023-02-14T17:37:58.183Z,4.34
2023-02-14T17:41:11.825Z,4.33
2023-02-14T17:44:14.501Z,4.41
2023-02-14T17:47:18.339Z,4.38
2023-02-14T17:50:24.119Z,4.37
2023-02-14T17:53:31.276Z,4.32
2023-02-14T17:56:35.403Z,4.27
2023-02-14T17:59:38.192Z,4.31
2023-02-14T18:02:41.026Z,4.25
2023-02-14T18:05:43.732Z,4.25
2023-02-14T18:08:49.898Z,4.21
2023-02-14T18:11:54.167Z,4.23
2023-02-14T18:14:57.218Z,4.18
2023-02-14T18:17:59.973Z,4.25
2023-02-14T18:21:04.228Z,4.29
2023-02-14T18:24:08.194Z,4.33
2023-02-14T18:27:15.966Z,4.30
2023-02-14T18:30:19.278Z,4.20
2023-02-14T18:33:24.095Z,4.07
2023-02-14T18:36:28.266Z,4.08
2023-02-14T18:39:32.741Z,4.12
2023-02-14T18:42:36.937Z,4.28
2023-02-14T18:45:41.295Z,4.15
2023-02-14T18:48:44.973Z,4.13
2023-02-14T18:51:48.959Z,4.11
2023-02-14T18:54:51.645Z,4.12
2023-02-14T18:57:55.987Z,4.05
2023-02-14T19:00:59.328Z,4.02
2023-02-14T19:04:03.012Z,3.98
2023-02-14T19:07:05.775Z,4.06
2023-02-14T19:10:10.055Z,4.19
2023-02-14T19:13:14.661Z,3.88
2023-02-14T19:16:20.125Z,4.27
2023-02-14T19:19:23.257Z,4.27
2023-02-14T19:22:25.935Z,4.21
2023-02-14T19:25:29.461Z,4.11
2023-02-14T19:28:33.761Z,4.22
2023-02-14T19:31:37.517Z,4.00
2023-02-14T19:34:40.372Z,3.95
2023-02-14T19:37:43.019Z,3.83
2023-02-14T19:40:45.968Z,3.82
2023-02-14T19:43:51.650Z,3.89
2023-02-14T19:46:56.482Z,3.92
2023-02-14T19:49:59.366Z,4.00
2023-02-14T19:53:02.065Z,3.96
2023-02-14T19:56:04.943Z,3.87
2023-02-14T19:59:10.072Z,3.78
2023-02-14T20:02:15.178Z,3.81
2023-02-14T20:05:19.277Z,3.84
2023-02-14T20:08:21.943Z,3.82
2023-02-14T20:11:32.629Z,3.80
2023-02-14T20:14:50.481Z,3.87
2023-02-14T20:17:54.365Z,4.09
2023-02-14T20:21:02.978Z,4.05
2023-02-14T20:24:06.267Z,4.01
2023-02-14T20:27:08.940Z,3.84
2023-02-14T20:30:14.330Z,3.91
2023-02-14T20:33:17.026Z,3.80
2023-02-14T20:36:20.681Z,3.76
2023-02-14T20:39:27.759Z,3.94
2023-02-14T20:42:30.469Z,3.95
2023-02-14T20:45:34.462Z,3.97
2023-02-14T20:48:37.152Z,3.82
2023-02-14T20:51:39.794Z,3.92
2023-02-14T20:54:42.521Z,4.10
2023-02-14T20:57:45.242Z,4.18
2023-02-14T21:00:49.865Z,4.14
2023-02-14T21:03:54.410Z,3.89
2023-02-14T21:06:57.896Z,3.87
2023-02-14T21:10:00.701Z,3.88
2023-02-14T21:13:03.366Z,3.84
2023-02-14T21:16:09.434Z,3.90
2023-02-14T21:19:12.602Z,4.03
2023-02-14T21:22:15.642Z,4.04
2023-02-14T21:25:18.320Z,3.90
2023-02-14T21:28:21.045Z,4.22
2023-02-14T21:31:25.970Z,4.19
2023-02-14T21:34:29.038Z,3.98
2023-02-14T21:37:32.881Z,3.92
2023-02-14T21:40:35.546Z,4.03
2023-02-14T21:43:40.081Z,4.15
2023-02-14T21:46:44.153Z,4.23
2023-02-14T21:50:04.135Z,4.27
2023-02-14T21:53:07.781Z,3.92
2023-02-14T21:56:15.105Z,3.78
2023-02-14T21:59:19.076Z,4.05
2023-02-14T22:02:23.094Z,4.21
2023-02-14T22:05:26.840Z,4.06
2023-02-14T22:08:30.049Z,3.97
2023-02-14T22:11:32.684Z,4.18
2023-02-14T22:14:35.410Z,4.01
2023-02-14T22:17:39.436Z,4.09
2023-02-14T22:20:42.145Z,4.00
2023-02-14T22:23:47.587Z,4.00
2023-02-14T22:26:50.228Z,4.04
2023-02-14T22:29:52.864Z,4.10
2023-02-14T22:32:56.933Z,4.15
2023-02-14T22:36:00.637Z,4.23
2023-02-14T22:39:05.078Z,4.11
2023-02-14T22:42:07.732Z,4.06
2023-02-14T22:45:10.893Z,4.00
2023-02-14T22:48:17.266Z,4.06
2023-02-14T22:51:26.592Z,4.18
2023-02-14T22:54:29.452Z,4.24
2023-02-14T22:57:32.667Z,4.11
2023-02-14T23:00:35.397Z,4.04
2023-02-14T23:03:39.431Z,3.99
2023-02-14T23:06:42.138Z,4.03
2023-02-14T23:09:45.111Z,4.09
2023-02-14T23:13:05.215Z,4.32
2023-02-14T23:16:27.118Z,4.27
2023-02-14T23:19:51.054Z,4.06
2023-02-14T23:22:53.692Z,4.02
2023-02-14T23:25:56.358Z,4.01
2023-02-14T23:28:59.040Z,3.95
2023-02-14T23:32:01.859Z,4.04
2023-02-14T23:35:07.448Z,3.99
2023-02-14T23:38:10.353Z,3.93
2023-02-14T23:41:31.118Z,3.90
2023-02-14T23:44:34.472Z,4.08
2023-02-14T23:47:37.260Z,3.91
2023-02-14T23:50:41.612Z,3.85
2023-02-14T23:53:44.326Z,4.07
2023-02-14T23:56:47.790Z,3.88
2023-02-14T23:59:50.455Z,3.96
